createdAt,value
2022-11-04T00:01:28.109Z,3.10
2022-11-04T00:05:34.072Z,2.70
2022-11-04T00:09:37.422Z,2.38
2022-11-04T00:13:39.882Z,2.72
2022-11-04T00:17:42.986Z,3.17
2022-11-04T00:22:05.347Z,2.50
2022-11-04T00:26:27.593Z,3.40
2022-11-04T00:30:31.067Z,2.97
2022-11-04T00:34:34.070Z,2.60
2022-11-04T00:38:38.927Z,2.95
2022-11-04T00:42:42.312Z,3.38
2022-11-04T00:46:46.723Z,3.15
2022-11-04T00:50:49.767Z,2.50
2022-11-04T00:54:54.589Z,3.38
2022-11-04T00:59:00.265Z,3.00
2022-11-04T01:03:03.672Z,2.83
2022-11-04T01:07:07.213Z,3.10
2022-11-04T01:11:12.356Z,2.50
2022-11-04T01:15:16.085Z,3.42
2022-11-04T01:19:19.262Z,3.05
2022-11-04T01:23:22.939Z,2.63
2022-11-04T01:27:27.489Z,3.83
2022-11-04T01:31:32.309Z,3.00
2022-11-04T01:35:35.298Z,2.83
2022-11-04T01:39:38.863Z,3.58
2022-11-04T01:43:50.730Z,3.70
2022-11-04T01:48:02.329Z,3.63
2022-11-04T01:52:11.210Z,3.15
2022-11-04T01:56:17.527Z,3.25
2022-11-04T02:00:22.078Z,3.63
2022-11-04T02:04:28.830Z,3.58
2022-11-04T02:08:32.271Z,3.17
2022-11-04T02:12:53.540Z,3.75
2022-11-04T02:17:06.673Z,3.50
2022-11-04T02:21:38.898Z,4.15
2022-11-04T02:26:18.390Z,4.38
2022-11-04T02:30:24.578Z,4.07
2022-11-04T02:34:34.194Z,3.78
2022-11-04T02:38:47.054Z,3.17
2022-11-04T02:47:04.829Z,5.25
2022-11-04T02:51:16.293Z,3.63
2022-11-04T02:55:24.796Z,4.80
2022-11-04T02:59:32.564Z,4.35
2022-11-04T03:03:42.219Z,3.70
2022-11-04T03:07:48.271Z,3.15
2022-11-04T03:11:57.783Z,3.63
2022-11-04T03:16:04.953Z,3.83
2022-11-04T03:20:19.460Z,3.80
2022-11-04T03:24:23.201Z,3.58
2022-11-04T03:28:35.358Z,3.33
2022-11-04T03:32:46.294Z,3.60
2022-11-04T03:36:50.766Z,4.00
2022-11-04T03:40:54.342Z,3.20
2022-11-04T03:44:58.835Z,3.13
2022-11-04T03:49:03.926Z,3.50
2022-11-04T03:53:10.101Z,3.13
2022-11-04T03:57:37.557Z,3.03
2022-11-04T04:01:50.826Z,4.28
2022-11-04T04:06:00.214Z,3.03
2022-11-04T04:10:26.954Z,3.08
2022-11-04T04:14:41.833Z,3.38
2022-11-04T04:18:54.079Z,3.58
2022-11-04T04:23:27.122Z,3.00
2022-11-04T04:27:31.758Z,4.38
2022-11-04T04:31:53.366Z,3.60
2022-11-04T04:35:58.816Z,3.70
2022-11-04T04:40:24.876Z,3.38
2022-11-04T04:44:47.948Z,3.53
2022-11-04T04:48:52.802Z,4.32
2022-11-04T04:53:00.289Z,3.65
2022-11-04T04:57:03.719Z,3.85
2022-11-04T05:01:09.136Z,3.95
2022-11-04T05:09:22.889Z,2.47
2022-11-04T05:13:30.955Z,1.92
2022-11-04T05:17:35.437Z,2.55
2022-11-04T05:21:39.100Z,1.27
2022-11-04T05:25:43.072Z,1.63
2022-11-04T05:29:46.650Z,1.65
2022-11-04T05:33:51.326Z,1.65
2022-11-04T05:37:56.670Z,1.58
2022-11-04T05:41:59.947Z,1.50
2022-11-04T05:46:03.992Z,1.20
2022-11-04T05:50:09.790Z,1.55
2022-11-04T05:54:14.315Z,1.08
2022-11-04T05:58:17.830Z,1.30
2022-11-04T06:02:21.036Z,1.20
2022-11-04T06:06:27.842Z,1.08
2022-11-04T06:10:30.948Z,0.90
2022-11-04T06:14:34.405Z,1.10
2022-11-04T06:18:37.957Z,1.10
2022-11-04T06:22:42.386Z,1.00
2022-11-04T06:26:46.577Z,0.85
2022-11-04T06:30:49.672Z,0.70
2022-11-04T06:34:53.451Z,0.82
2022-11-04T06:39:04.069Z,1.00
2022-11-04T06:43:08.568Z,0.45
2022-11-04T06:47:11.785Z,1.38
2022-11-04T06:51:15.267Z,0.60
2022-11-04T06:55:20.904Z,0.60
2022-11-04T06:59:24.221Z,1.02
2022-11-04T07:03:28.045Z,0.70
2022-11-04T07:07:31.159Z,0.98
2022-11-04T07:11:36.037Z,0.82
2022-11-04T07:15:40.182Z,0.57
2022-11-04T07:19:43.228Z,0.68
2022-11-04T07:23:46.798Z,0.40
2022-11-04T07:27:51.616Z,0.70
2022-11-04T07:31:54.604Z,0.75
2022-11-04T07:35:58.659Z,0.40
2022-11-04T07:40:01.753Z,0.63
2022-11-04T07:44:06.599Z,0.88
2022-11-04T07:48:10.573Z,0.52
2022-11-04T07:52:14.001Z,1.15
2022-11-04T07:56:19.644Z,0.50
2022-11-04T08:00:24.726Z,0.47
2022-11-04T08:04:27.978Z,0.45
2022-11-04T08:08:32.099Z,0.60
2022-11-04T08:12:35.681Z,0.40
2022-11-04T08:16:40.673Z,1.00
2022-11-04T08:20:50.746Z,0.60
2022-11-04T08:24:54.068Z,0.25
2022-11-04T08:28:57.849Z,0.40
2022-11-04T08:33:03.044Z,0.40
2022-11-04T08:37:06.001Z,0.40
2022-11-04T08:41:11.253Z,0.75
2022-11-04T08:45:14.730Z,0.90
2022-11-04T08:49:21.325Z,0.38
2022-11-04T08:53:25.043Z,0.60
2022-11-04T08:57:28.125Z,0.82
2022-11-04T09:01:35.880Z,0.40
2022-11-04T09:05:45.711Z,0.40
2022-11-04T09:09:48.980Z,0.60
2022-11-04T09:13:53.770Z,0.68
2022-11-04T09:17:56.901Z,1.52
2022-11-04T09:22:01.762Z,0.32
2022-11-04T09:26:07.462Z,0.20
2022-11-04T09:30:12.502Z,0.50
2022-11-04T09:34:15.610Z,0.80
2022-11-04T09:38:20.512Z,0.28
2022-11-04T09:42:49.472Z,0.73
2022-11-04T09:46:55.690Z,0.32
2022-11-04T09:51:02.035Z,0.73
2022-11-04T09:55:15.149Z,0.38
2022-11-04T09:59:25.828Z,0.20
2022-11-04T10:03:45.445Z,0.50
2022-11-04T10:08:27.884Z,0.30
2022-11-04T10:12:51.414Z,0.10
2022-11-04T10:17:10.265Z,0.13
2022-11-04T10:21:23.369Z,0.45
2022-11-04T10:25:37.247Z,0.17
2022-11-04T10:29:45.516Z,0.30
2022-11-04T10:33:53.797Z,0.20
2022-11-04T10:38:00.070Z,0.28
2022-11-04T10:42:05.475Z,0.28
2022-11-04T10:46:38.831Z,0.30
2022-11-04T10:54:52.259Z,0.77
2022-11-04T10:58:57.024Z,0.20
2022-11-04T11:03:02.123Z,0.30
2022-11-04T11:07:08.377Z,0.20
2022-11-04T11:11:12.775Z,0.20
2022-11-04T11:15:27.938Z,0.20
2022-11-04T11:19:47.617Z,0.10
2022-11-04T11:23:53.383Z,0.30
2022-11-04T11:27:59.741Z,0.10
2022-11-04T11:32:03.759Z,0.50
2022-11-04T11:36:13.462Z,0.25
2022-11-04T11:40:28.774Z,0.38
2022-11-04T11:44:37.693Z,0.13
2022-11-04T11:48:43.492Z,0.20
2022-11-04T11:52:49.323Z,0.20
2022-11-04T11:57:13.057Z,0.15
2022-11-04T12:01:25.558Z,0.43
2022-11-04T12:10:23.842Z,0.28
2022-11-04T12:14:53.065Z,0.20
2022-11-04T12:19:08.545Z,0.20
2022-11-04T12:23:22.487Z,0.22
2022-11-04T12:27:38.749Z,0.22
2022-11-04T12:31:53.774Z,0.17
2022-11-04T12:36:09.778Z,0.43
2022-11-04T12:40:18.461Z,0.40
2022-11-04T12:44:35.239Z,0.40
2022-11-04T12:49:00.768Z,0.28
2022-11-04T12:53:40.114Z,0.50
2022-11-04T12:57:52.320Z,0.32
2022-11-04T13:02:02.310Z,0.55
2022-11-04T13:06:11.733Z,1.15
2022-11-04T13:10:22.715Z,0.25
2022-11-04T13:14:32.373Z,0.28
2022-11-04T13:18:41.301Z,0.82
2022-11-04T13:22:49.106Z,0.20
2022-11-04T13:26:53.795Z,0.20
2022-11-04T13:31:05.365Z,0.50
2022-11-04T13:35:19.453Z,0.10
2022-11-04T13:39:27.055Z,0.13
2022-11-04T13:43:41.613Z,0.20
2022-11-04T13:47:50.517Z,0.17
2022-11-04T13:52:18.389Z,0.20
2022-11-04T13:56:35.090Z,0.65
2022-11-04T14:00:40.398Z,0.35
2022-11-04T14:04:45.201Z,0.10
2022-11-04T14:09:24.047Z,0.52
2022-11-04T14:14:04.417Z,0.20
2022-11-04T14:18:29.458Z,0.30
2022-11-04T14:22:49.622Z,0.50
2022-11-04T14:26:53.370Z,0.20
2022-11-04T14:31:00.370Z,0.47
2022-11-04T14:35:07.850Z,0.20
2022-11-04T14:39:27.356Z,0.17
2022-11-04T14:43:36.145Z,0.20
2022-11-04T14:47:41.130Z,0.30
2022-11-04T14:51:45.270Z,0.50
2022-11-04T14:55:49.385Z,0.20
2022-11-04T14:59:54.643Z,0.13
2022-11-04T15:04:12.470Z,0.20
2022-11-04T15:08:45.125Z,0.30
2022-11-04T15:12:55.340Z,0.40
2022-11-04T15:17:00.705Z,0.10
2022-11-04T15:21:05.923Z,0.10
2022-11-04T15:25:13.506Z,0.35
2022-11-04T15:29:18.221Z,0.30
2022-11-04T15:33:21.648Z,0.10
2022-11-04T15:37:29.345Z,0.20
2022-11-04T15:41:51.293Z,0.20
2022-11-04T15:45:56.359Z,0.20
2022-11-04T15:50:05.456Z,0.22
2022-11-04T15:54:23.566Z,0.30
2022-11-04T15:58:26.685Z,0.40
2022-11-04T16:02:32.530Z,0.45
2022-11-04T16:06:38.061Z,0.30
2022-11-04T16:10:43.176Z,0.45
2022-11-04T16:14:51.311Z,0.60
2022-11-04T16:18:56.248Z,0.35
2022-11-04T16:23:02.648Z,0.20
2022-11-04T16:27:10.812Z,0.50
2022-11-04T16:31:27.306Z,0.40
2022-11-04T16:35:31.207Z,0.40
2022-11-04T16:39:34.538Z,0.22
2022-11-04T16:43:42.834Z,0.45
2022-11-04T16:47:45.870Z,0.20
2022-11-04T16:51:55.020Z,0.50
2022-11-04T16:55:58.827Z,0.30
2022-11-04T17:00:07.188Z,0.50
2022-11-04T17:04:11.246Z,0.30
2022-11-04T17:08:17.702Z,0.47
2022-11-04T17:12:21.351Z,0.30
2022-11-04T17:16:26.493Z,0.20
2022-11-04T17:20:30.575Z,0.22
2022-11-04T17:24:34.557Z,0.57
2022-11-04T17:28:37.837Z,0.43
2022-11-04T17:32:43.145Z,0.60
2022-11-04T17:36:46.157Z,0.38
2022-11-04T17:41:06.648Z,0.35
2022-11-04T17:45:11.236Z,0.40
2022-11-04T17:49:17.868Z,0.40
2022-11-04T17:53:21.567Z,0.40
2022-11-04T17:57:24.528Z,0.50
2022-11-04T18:01:28.275Z,0.50
2022-11-04T18:05:33.245Z,0.63
2022-11-04T18:09:36.455Z,0.55
2022-11-04T18:13:40.073Z,0.50
2022-11-04T18:17:45.577Z,0.43
2022-11-04T18:21:51.059Z,0.40
2022-11-04T18:25:54.092Z,0.30
2022-11-04T18:29:57.835Z,0.75
2022-11-04T18:34:02.556Z,0.30
2022-11-04T18:38:07.534Z,0.50
2022-11-04T18:42:10.747Z,0.40
2022-11-04T18:46:16.724Z,0.50
2022-11-04T18:50:20.523Z,0.40
2022-11-04T18:54:25.471Z,0.30
2022-11-04T18:58:28.891Z,0.20
2022-11-04T19:02:32.709Z,0.70
2022-11-04T19:06:39.141Z,0.32
2022-11-04T19:11:00.065Z,0.75
2022-11-04T19:15:04.933Z,0.60
2022-11-04T19:19:12.613Z,0.80
2022-11-04T19:23:16.067Z,0.35
2022-11-04T19:27:23.452Z,0.90
2022-11-04T19:31:28.840Z,0.60
2022-11-04T19:35:32.216Z,0.85
2022-11-04T19:39:35.931Z,0.60
2022-11-04T19:43:40.756Z,0.45
2022-11-04T19:47:44.162Z,0.40
2022-11-04T19:51:50.349Z,0.38
2022-11-04T19:55:55.497Z,0.60
2022-11-04T20:00:00.809Z,0.65
2022-11-04T20:04:05.007Z,0.80
2022-11-04T20:08:09.727Z,0.57
2022-11-04T20:12:30.709Z,0.63
2022-11-04T20:16:39.569Z,1.25
2022-11-04T20:20:44.090Z,0.47
2022-11-04T20:24:47.080Z,0.95
2022-11-04T20:28:51.513Z,0.47
2022-11-04T20:32:56.394Z,0.50
2022-11-04T20:37:01.117Z,0.38
2022-11-04T20:41:06.389Z,0.52
2022-11-04T20:45:10.285Z,0.57
2022-11-04T20:49:15.650Z,0.55
2022-11-04T20:53:18.926Z,0.30
2022-11-04T20:57:23.478Z,0.45
2022-11-04T21:01:29.621Z,0.60
2022-11-04T21:05:37.204Z,0.95
2022-11-04T21:09:40.937Z,0.65
2022-11-04T21:13:44.394Z,0.40
2022-11-04T21:17:48.534Z,0.60
2022-11-04T21:21:55.230Z,0.60
2022-11-04T21:26:01.640Z,1.00
2022-11-04T21:30:08.448Z,0.60
2022-11-04T21:34:12.365Z,0.43
2022-11-04T21:38:20.908Z,0.40
2022-11-04T21:42:24.546Z,0.68
2022-11-04T21:46:29.431Z,0.68
2022-11-04T21:50:33.232Z,0.85
2022-11-04T21:54:37.767Z,0.95
2022-11-04T21:58:41.886Z,0.70
2022-11-04T22:02:47.495Z,0.80
2022-11-04T22:06:51.312Z,0.82
2022-11-04T22:10:56.156Z,0.77
2022-11-04T22:14:59.667Z,0.93
2022-11-04T22:19:05.087Z,1.23
2022-11-04T22:23:09.122Z,1.27
2022-11-04T22:27:14.299Z,1.10
2022-11-04T22:31:20.615Z,1.15
2022-11-04T22:35:23.714Z,0.98
2022-11-04T22:39:27.432Z,1.52
2022-11-04T22:43:31.846Z,1.38
2022-11-04T22:47:35.488Z,0.82
2022-11-04T22:51:49.820Z,0.80
2022-11-04T22:55:58.155Z,1.42
2022-11-04T23:00:02.997Z,1.58
2022-11-04T23:04:26.073Z,0.90
2022-11-04T23:53:44.025Z,1.20
2022-11-04T23:58:04.647Z,1.08
